createdAt,value
2022-09-09T00:02:26.234Z,17.30
2022-09-09T00:05:03.719Z,14.23
2022-09-09T00:07:42.525Z,14.00
2022-09-09T00:10:18.442Z,19.67
2022-09-09T00:13:06.653Z,16.13
2022-09-09T00:15:48.678Z,18.43
2022-09-09T00:18:43.048Z,17.25
2022-09-09T00:21:19.746Z,15.75
2022-09-09T00:23:49.592Z,18.20
2022-09-09T00:26:22.573Z,16.58
2022-09-09T00:29:15.237Z,20.58
2022-09-09T00:31:45.108Z,15.27
2022-09-09T00:34:22.319Z,17.70
2022-09-09T00:36:55.458Z,15.32
2022-09-09T00:39:46.824Z,14.18
2022-09-09T00:42:20.912Z,12.27
2022-09-09T00:44:59.660Z,14.43
2022-09-09T00:47:38.580Z,13.63
2022-09-09T00:50:08.444Z,10.68
2022-09-09T00:52:47.228Z,15.68
2022-09-09T00:55:32.333Z,12.63
2022-09-09T00:58:02.061Z,13.30
2022-09-09T01:00:36.171Z,13.80
2022-09-09T01:03:26.973Z,13.43
2022-09-09T01:05:59.954Z,15.80
2022-09-09T01:08:48.317Z,13.02
2022-09-09T01:11:31.741Z,18.15
2022-09-09T01:14:20.582Z,22.55
2022-09-09T01:16:50.289Z,15.25
2022-09-09T01:19:23.633Z,14.75
2022-09-09T01:21:59.949Z,13.88
2022-09-09T01:24:29.751Z,17.65
2022-09-09T01:27:00.827Z,16.83
2022-09-09T01:29:30.686Z,16.70
2022-09-09T01:32:02.120Z,18.80
2022-09-09T01:34:33.162Z,19.33
2022-09-09T01:37:12.996Z,19.25
2022-09-09T01:39:45.895Z,16.10
2022-09-09T01:42:17.699Z,18.13
2022-09-09T01:44:47.402Z,16.75
2022-09-09T01:47:18.589Z,15.18
2022-09-09T01:49:48.191Z,14.85
2022-09-09T01:52:17.832Z,15.75
2022-09-09T01:54:47.619Z,18.98
2022-09-09T01:57:35.031Z,13.20
2022-09-09T02:00:11.260Z,14.48
2022-09-09T02:02:50.296Z,17.98
2022-09-09T02:05:38.601Z,13.75
2022-09-09T02:08:12.139Z,19.25
2022-09-09T02:10:53.052Z,22.95
2022-09-09T02:13:23.424Z,17.60
2022-09-09T02:15:56.872Z,16.58
2022-09-09T02:18:38.443Z,17.42
2022-09-09T02:21:08.276Z,13.55
2022-09-09T02:23:37.761Z,17.67
2022-09-09T02:26:07.456Z,17.45
2022-09-09T02:28:37.224Z,15.73
2022-09-09T02:31:07.134Z,19.40
2022-09-09T02:33:38.857Z,19.63
2022-09-09T02:36:09.056Z,19.05
2022-09-09T02:38:39.808Z,16.55
2022-09-09T02:41:09.532Z,20.20
2022-09-09T02:43:39.640Z,15.35
2022-09-09T02:46:18.412Z,16.70
2022-09-09T02:49:04.728Z,19.45
2022-09-09T02:51:44.143Z,22.00
2022-09-09T02:54:15.901Z,18.05
2022-09-09T02:56:46.043Z,18.38
2022-09-09T02:59:15.726Z,17.60
2022-09-09T03:01:46.511Z,17.08
2022-09-09T03:04:16.546Z,18.77
2022-09-09T03:06:47.347Z,19.70
2022-09-09T03:09:17.093Z,18.05
2022-09-09T03:11:46.829Z,16.65
2022-09-09T03:14:16.791Z,22.75
2022-09-09T03:16:46.677Z,16.02
2022-09-09T03:19:16.428Z,16.50
2022-09-09T03:21:46.254Z,20.40
2022-09-09T03:24:16.731Z,17.08
2022-09-09T03:26:49.519Z,17.85
2022-09-09T03:29:20.465Z,16.70
2022-09-09T03:31:51.385Z,17.15
2022-09-09T03:34:21.239Z,18.10
2022-09-09T03:36:51.704Z,15.55
2022-09-09T03:39:21.765Z,16.15
2022-09-09T03:41:51.836Z,15.40
2022-09-09T03:44:22.175Z,15.02
2022-09-09T03:46:55.023Z,16.75
2022-09-09T03:49:25.194Z,16.65
2022-09-09T03:51:55.355Z,16.20
2022-09-09T03:54:25.359Z,16.63
2022-09-09T03:56:55.259Z,15.45
2022-09-09T03:59:25.332Z,17.00
2022-09-09T04:01:55.758Z,16.15
2022-09-09T04:04:25.448Z,16.48
2022-09-09T04:06:55.824Z,13.50
2022-09-09T04:09:25.630Z,17.83
2022-09-09T04:11:55.917Z,16.50
2022-09-09T04:14:26.096Z,17.30
2022-09-09T04:16:56.228Z,20.92
2022-09-09T04:19:26.036Z,20.23
2022-09-09T04:21:56.216Z,21.00
2022-09-09T04:24:27.379Z,15.75
2022-09-09T04:26:57.865Z,16.88
2022-09-09T04:29:27.543Z,17.45
2022-09-09T04:31:58.497Z,19.48
2022-09-09T04:34:28.278Z,16.10
2022-09-09T04:36:59.244Z,15.32
2022-09-09T04:39:29.139Z,13.82
2022-09-09T04:41:58.863Z,12.85
2022-09-09T04:44:28.790Z,15.25
2022-09-09T04:46:58.449Z,15.02
2022-09-09T04:49:28.341Z,17.10
2022-09-09T04:51:58.548Z,14.13
2022-09-09T04:54:28.528Z,14.73
2022-09-09T04:56:58.363Z,12.82
2022-09-09T04:59:28.057Z,14.00
2022-09-09T05:01:58.347Z,13.40
2022-09-09T05:04:28.213Z,13.93
2022-09-09T05:06:57.896Z,12.23
2022-09-09T05:09:27.606Z,11.05
2022-09-09T05:11:58.593Z,13.82
2022-09-09T05:14:29.044Z,15.40
2022-09-09T05:17:00.313Z,12.35
2022-09-09T05:19:29.981Z,12.32
2022-09-09T05:21:59.562Z,11.25
2022-09-09T05:24:29.143Z,12.60
2022-09-09T05:27:00.488Z,10.27
2022-09-09T05:29:30.238Z,13.00
2022-09-09T05:32:00.857Z,17.42
2022-09-09T05:34:31.511Z,11.55
2022-09-09T05:37:01.148Z,18.75
2022-09-09T05:39:31.812Z,15.30
2022-09-09T05:42:01.541Z,15.73
2022-09-09T05:44:31.667Z,13.95
2022-09-09T05:47:01.452Z,16.65
2022-09-09T05:49:31.258Z,15.38
2022-09-09T05:52:01.032Z,18.63
2022-09-09T05:54:31.194Z,16.98
2022-09-09T05:57:01.579Z,20.33
2022-09-09T05:59:31.286Z,23.83
2022-09-09T06:02:01.676Z,18.73
2022-09-09T06:04:32.778Z,17.63
2022-09-09T06:07:02.584Z,17.98
2022-09-09T06:09:33.076Z,17.52
2022-09-09T06:12:02.902Z,18.98
2022-09-09T06:14:32.632Z,21.83
2022-09-09T06:17:02.626Z,17.90
2022-09-09T06:19:33.355Z,19.90
2022-09-09T06:22:03.082Z,21.17
2022-09-09T06:24:32.830Z,23.92
2022-09-09T06:27:05.537Z,21.20
2022-09-09T06:29:35.245Z,19.50
2022-09-09T06:32:06.958Z,20.63
2022-09-09T06:34:37.964Z,20.48
2022-09-09T06:37:08.925Z,24.25
2022-09-09T06:39:38.594Z,24.90
2022-09-09T06:42:09.343Z,21.05
2022-09-09T06:44:43.434Z,23.58
2022-09-09T06:47:13.694Z,21.15
2022-09-09T06:49:46.560Z,25.92
2022-09-09T06:52:20.832Z,21.42
2022-09-09T06:54:50.546Z,23.25
2022-09-09T06:57:36.336Z,22.80
2022-09-09T07:00:07.109Z,20.88
2022-09-09T07:02:41.276Z,23.33
2022-09-09T07:05:11.080Z,19.58
2022-09-09T07:07:40.715Z,20.80
2022-09-09T07:10:10.489Z,34.83
2022-09-09T07:12:40.203Z,24.02
2022-09-09T07:15:10.228Z,24.98
2022-09-09T07:17:40.178Z,23.38
2022-09-09T07:20:10.419Z,20.02
2022-09-09T07:22:40.257Z,24.27
2022-09-09T07:25:10.476Z,22.95
2022-09-09T07:27:40.276Z,24.45
2022-09-09T07:30:10.338Z,25.80
2022-09-09T07:32:40.981Z,27.23
2022-09-09T07:35:11.012Z,29.23
2022-09-09T07:37:41.197Z,25.98
2022-09-09T07:40:11.402Z,28.73
2022-09-09T07:42:41.200Z,30.13
2022-09-09T07:45:11.135Z,30.88
2022-09-09T07:47:41.116Z,40.05
2022-09-09T07:50:11.764Z,33.58
2022-09-09T07:52:41.701Z,35.30
2022-09-09T07:55:11.689Z,28.00
2022-09-09T07:57:41.607Z,23.20
2022-09-09T08:00:12.773Z,23.77
2022-09-09T08:02:42.458Z,28.80
2022-09-09T08:05:12.331Z,21.30
2022-09-09T08:07:42.177Z,13.73
2022-09-09T08:10:11.942Z,14.23
2022-09-09T08:12:47.723Z,18.45
2022-09-09T08:15:25.996Z,13.60
2022-09-09T08:17:55.848Z,12.82
2022-09-09T08:20:25.767Z,15.07
2022-09-09T08:22:55.401Z,19.48
2022-09-09T08:25:25.125Z,16.80
2022-09-09T08:27:59.305Z,16.27
2022-09-09T08:30:29.708Z,11.50
2022-09-09T08:32:59.772Z,13.82
2022-09-09T08:35:29.971Z,11.40
2022-09-09T08:37:59.668Z,11.40
2022-09-09T08:40:30.575Z,13.52
2022-09-09T08:43:00.255Z,7.68
2022-09-09T08:45:33.083Z,13.57
2022-09-09T08:48:18.871Z,12.65
2022-09-09T08:50:51.003Z,10.85
2022-09-09T08:53:24.297Z,7.97
2022-09-09T08:56:17.674Z,10.32
2022-09-09T08:58:48.070Z,10.32
2022-09-09T09:01:27.209Z,11.55
2022-09-09T09:06:41.874Z,10.88
2022-09-09T09:09:27.134Z,11.43
2022-09-09T09:12:03.043Z,12.63
2022-09-09T09:14:36.440Z,10.68
2022-09-09T09:17:17.486Z,11.70
2022-09-09T09:19:48.945Z,10.00
2022-09-09T09:22:29.063Z,13.52
2022-09-09T09:25:14.362Z,12.55
2022-09-09T09:28:08.183Z,9.15
2022-09-09T09:30:44.632Z,9.32
2022-09-09T09:33:33.102Z,8.73
2022-09-09T09:36:02.790Z,11.40
2022-09-09T09:41:32.986Z,12.02
2022-09-09T09:44:06.880Z,14.15
2022-09-09T09:46:36.585Z,23.02
2022-09-09T09:49:08.083Z,11.05
2022-09-09T09:51:38.887Z,11.25
2022-09-09T09:54:18.527Z,13.43
2022-09-09T09:56:48.471Z,14.32
2022-09-09T09:59:40.816Z,12.60
2022-09-09T10:02:17.585Z,14.63
2022-09-09T10:04:50.130Z,15.52
2022-09-09T10:07:22.336Z,13.52
2022-09-09T10:09:56.654Z,15.43
2022-09-09T10:12:32.534Z,19.08
2022-09-09T10:15:08.683Z,26.45
2022-09-09T10:17:57.357Z,19.83
2022-09-09T10:20:46.830Z,21.92
2022-09-09T10:23:20.737Z,19.58
2022-09-09T10:25:58.714Z,14.85
2022-09-09T10:28:37.888Z,15.95
2022-09-09T10:33:40.796Z,18.60
2022-09-09T10:36:17.524Z,16.15
2022-09-09T10:38:50.385Z,20.25
2022-09-09T10:41:32.419Z,17.35
2022-09-09T10:44:11.373Z,18.10
2022-09-09T10:46:46.780Z,30.15
2022-09-09T10:49:23.573Z,19.23
2022-09-09T10:51:53.456Z,22.90
2022-09-09T10:54:37.304Z,25.88
2022-09-09T10:57:36.808Z,32.65
2022-09-09T11:00:08.261Z,42.10
2022-09-09T11:02:38.299Z,31.70
2022-09-09T11:05:09.776Z,29.67
2022-09-09T11:07:55.190Z,33.22
2022-09-09T11:10:31.130Z,32.55
2022-09-09T11:13:07.938Z,29.00
2022-09-09T11:15:44.428Z,25.48
2022-09-09T11:18:15.716Z,24.25
2022-09-09T11:20:45.413Z,28.17
2022-09-09T11:23:25.940Z,23.33
2022-09-09T11:25:58.884Z,28.25
2022-09-09T11:28:47.138Z,23.40
2022-09-09T11:31:35.495Z,26.40
2022-09-09T11:34:10.787Z,23.33
2022-09-09T11:36:49.423Z,23.60
2022-09-09T11:39:22.571Z,25.50
2022-09-09T11:41:52.561Z,28.73
2022-09-09T11:44:23.878Z,23.17
2022-09-09T11:46:56.672Z,23.63
2022-09-09T11:49:33.746Z,21.75
2022-09-09T11:52:03.548Z,31.33
2022-09-09T11:54:37.485Z,23.38
2022-09-09T11:57:27.329Z,24.35
2022-09-09T11:59:57.493Z,28.05
2022-09-09T12:02:32.541Z,26.23
2022-09-09T12:05:07.936Z,26.80
2022-09-09T12:07:45.040Z,25.13
2022-09-09T12:10:34.918Z,49.40
2022-09-09T12:13:27.224Z,40.30
2022-09-09T12:15:57.849Z,36.85
2022-09-09T12:18:30.690Z,28.20
2022-09-09T12:21:06.837Z,27.38
2022-09-09T12:23:39.881Z,35.25
2022-09-09T12:26:12.611Z,46.97
2022-09-09T12:28:43.232Z,50.40
2022-09-09T12:31:24.594Z,76.18
2022-09-09T12:33:55.392Z,58.78
2022-09-09T12:36:33.915Z,54.42
2022-09-09T12:39:13.255Z,50.47
2022-09-09T12:41:42.970Z,52.90
2022-09-09T12:44:13.252Z,48.13
2022-09-09T12:46:49.384Z,55.05
2022-09-09T12:49:38.828Z,53.97
2022-09-09T12:52:32.578Z,52.92
2022-09-09T12:55:03.017Z,49.95
2022-09-09T12:57:35.588Z,50.40
2022-09-09T13:00:11.529Z,47.08
2022-09-09T13:02:48.767Z,44.90
2022-09-09T13:05:25.993Z,40.08
2022-09-09T13:07:56.149Z,42.08
2022-09-09T13:10:36.927Z,36.97
2022-09-09T13:13:19.603Z,39.70
2022-09-09T13:15:53.475Z,32.45
2022-09-09T13:18:25.801Z,37.10
2022-09-09T13:20:55.540Z,38.35
2022-09-09T13:23:25.678Z,35.97
2022-09-09T13:26:06.877Z,31.75
2022-09-09T13:28:37.752Z,32.80
2022-09-09T13:31:09.414Z,33.33
2022-09-09T13:33:42.427Z,38.78
2022-09-09T13:36:13.283Z,30.30
2022-09-09T13:38:44.929Z,31.25
2022-09-09T13:41:15.148Z,35.08
2022-09-09T13:43:49.762Z,37.10
2022-09-09T13:46:37.971Z,32.80
2022-09-09T13:49:14.481Z,34.53
2022-09-09T13:51:45.106Z,77.38
2022-09-09T13:54:15.574Z,56.17
2022-09-09T13:56:45.992Z,40.83
2022-09-09T13:59:17.034Z,35.75
2022-09-09T14:01:47.335Z,40.08
2022-09-09T14:04:18.358Z,40.95
2022-09-09T14:06:48.420Z,47.53
2022-09-09T14:09:18.900Z,41.92
2022-09-09T14:11:49.152Z,50.33
2022-09-09T14:14:19.618Z,44.97
2022-09-09T14:16:50.142Z,44.15
2022-09-09T14:19:20.904Z,42.05
2022-09-09T14:21:51.237Z,48.85
2022-09-09T14:24:24.596Z,42.50
2022-09-09T14:26:54.558Z,42.47
2022-09-09T14:29:24.741Z,37.65
2022-09-09T14:31:54.895Z,43.17
2022-09-09T14:34:25.216Z,34.83
2022-09-09T14:36:55.348Z,46.45
2022-09-09T14:39:25.513Z,39.75
2022-09-09T14:41:55.662Z,37.00
2022-09-09T14:44:25.889Z,37.65
2022-09-09T14:46:56.801Z,43.80
2022-09-09T14:49:26.705Z,39.40
2022-09-09T14:51:56.861Z,35.38
2022-09-09T14:54:26.879Z,43.38
2022-09-09T14:56:57.024Z,45.13
2022-09-09T14:59:26.753Z,34.03
2022-09-09T15:01:56.780Z,30.67
2022-09-09T15:04:26.855Z,33.17
2022-09-09T15:06:56.673Z,28.95
2022-09-09T15:09:26.630Z,24.00
2022-09-09T15:11:56.402Z,31.80
2022-09-09T15:14:26.261Z,28.13
2022-09-09T15:16:56.048Z,25.55
2022-09-09T15:19:25.864Z,26.55
2022-09-09T15:21:56.284Z,28.75
2022-09-09T15:24:26.102Z,24.02
2022-09-09T15:26:56.728Z,21.45
2022-09-09T15:29:26.813Z,14.27
2022-09-09T15:31:59.885Z,14.48
2022-09-09T15:34:30.521Z,14.50
2022-09-09T15:37:02.222Z,12.32
2022-09-09T15:39:35.612Z,6.10
2022-09-09T15:42:09.627Z,6.63
2022-09-09T15:44:45.016Z,5.60
2022-09-09T15:47:18.876Z,4.20
2022-09-09T15:49:48.872Z,3.17
2022-09-09T15:52:18.554Z,8.02
2022-09-09T15:54:48.266Z,5.80
2022-09-09T15:57:18.182Z,3.15
2022-09-09T15:59:48.204Z,3.42
2022-09-09T16:02:18.526Z,6.30
2022-09-09T16:04:48.350Z,5.15
2022-09-09T16:07:18.142Z,7.50
2022-09-09T16:09:49.158Z,6.25
2022-09-09T16:12:19.352Z,3.85
2022-09-09T16:14:49.063Z,9.95
2022-09-09T16:17:19.315Z,9.88
2022-09-09T16:19:48.986Z,14.25
2022-09-09T16:22:20.511Z,9.65
2022-09-09T16:24:50.332Z,9.48
2022-09-09T16:27:20.635Z,10.25
2022-09-09T16:29:51.794Z,4.55
2022-09-09T16:32:22.910Z,10.20
2022-09-09T16:34:52.784Z,7.78
2022-09-09T16:37:22.683Z,14.35
2022-09-09T16:39:52.915Z,10.20
2022-09-09T16:42:23.030Z,8.35
2022-09-09T16:44:52.909Z,10.50
2022-09-09T16:47:23.378Z,17.10
2022-09-09T16:49:53.108Z,12.95
2022-09-09T16:52:22.867Z,7.07
2022-09-09T16:54:52.599Z,6.47
2022-09-09T16:57:22.273Z,8.75
2022-09-09T16:59:52.641Z,9.85
2022-09-09T17:02:22.529Z,14.95
2022-09-09T17:04:52.332Z,9.90
2022-09-09T17:07:22.234Z,11.68
2022-09-09T17:09:52.045Z,10.73
2022-09-09T17:12:21.913Z,9.18
2022-09-09T17:14:51.789Z,14.63
2022-09-09T17:17:31.617Z,15.20
2022-09-09T17:20:01.818Z,11.48
2022-09-09T17:22:31.543Z,18.08
2022-09-09T17:25:01.179Z,14.88
2022-09-09T17:27:33.764Z,14.95
2022-09-09T17:30:04.948Z,14.88
2022-09-09T17:32:34.912Z,18.92
2022-09-09T17:35:04.534Z,10.45
2022-09-09T17:37:34.547Z,12.07
2022-09-09T17:40:04.540Z,11.80
2022-09-09T17:42:35.178Z,9.77
2022-09-09T17:45:04.917Z,14.23
2022-09-09T17:47:34.559Z,15.88
2022-09-09T17:50:04.407Z,20.23
2022-09-09T17:52:34.023Z,12.63
2022-09-09T17:55:03.673Z,10.93
2022-09-09T17:57:33.871Z,10.57
2022-09-09T18:00:03.516Z,11.32
2022-09-09T18:02:33.201Z,9.63
2022-09-09T18:05:03.698Z,12.73
2022-09-09T18:07:33.349Z,25.88
2022-09-09T18:10:03.090Z,10.93
2022-09-09T18:12:33.334Z,14.57
2022-09-09T18:15:04.203Z,9.23
2022-09-09T18:17:34.162Z,22.77
2022-09-09T18:20:04.206Z,16.15
2022-09-09T18:22:33.913Z,9.35
2022-09-09T18:25:04.034Z,15.88
2022-09-09T18:27:33.701Z,12.45
2022-09-09T18:30:03.458Z,15.88
2022-09-09T18:32:33.703Z,14.80
2022-09-09T18:35:03.744Z,9.32
2022-09-09T18:37:35.560Z,21.95
2022-09-09T18:40:05.616Z,10.65
2022-09-09T18:42:35.600Z,11.73
2022-09-09T18:45:05.526Z,12.05
2022-09-09T18:47:36.320Z,9.65
2022-09-09T18:50:06.365Z,12.35
2022-09-09T18:52:36.485Z,9.52
2022-09-09T18:55:06.167Z,13.77
2022-09-09T18:57:36.583Z,16.10
2022-09-09T19:00:06.936Z,15.45
2022-09-09T19:02:36.806Z,16.58
2022-09-09T19:05:06.713Z,24.17
2022-09-09T19:07:36.498Z,8.63
2022-09-09T19:10:06.103Z,11.48
2022-09-09T19:12:35.737Z,18.08
2022-09-09T19:15:05.729Z,9.45
2022-09-09T19:17:37.174Z,11.00
2022-09-09T19:20:10.258Z,14.50
2022-09-09T19:22:39.897Z,16.92
2022-09-09T19:25:09.780Z,13.60
2022-09-09T19:27:39.494Z,14.55
2022-09-09T19:30:09.538Z,14.45
2022-09-09T19:32:54.605Z,18.92
2022-09-09T19:35:25.075Z,18.60
2022-09-09T19:37:55.097Z,18.00
2022-09-09T19:40:25.178Z,15.90
2022-09-09T19:42:56.634Z,15.85
2022-09-09T19:45:26.601Z,14.75
2022-09-09T19:47:57.625Z,10.82
2022-09-09T19:50:27.388Z,15.35
2022-09-09T19:52:57.938Z,12.02
2022-09-09T19:55:29.009Z,12.02
2022-09-09T19:57:58.965Z,13.60
2022-09-09T20:00:28.870Z,16.85
2022-09-09T20:03:18.074Z,13.45
2022-09-09T20:05:50.675Z,9.05
2022-09-09T20:08:20.394Z,11.90
2022-09-09T20:10:54.200Z,18.90
2022-09-09T20:13:23.822Z,14.27
2022-09-09T20:16:03.010Z,16.85
2022-09-09T20:21:04.313Z,9.35
2022-09-09T20:23:35.105Z,11.02
2022-09-09T20:26:06.285Z,9.50
2022-09-09T20:28:37.153Z,9.93
2022-09-09T20:31:10.298Z,15.18
2022-09-09T20:33:40.391Z,13.95
2022-09-09T20:36:17.245Z,9.25
2022-09-09T20:38:47.989Z,11.73
2022-09-09T20:41:20.031Z,11.10
2022-09-09T20:43:50.563Z,14.00
2022-09-09T20:46:20.879Z,11.52
2022-09-09T20:48:52.001Z,9.85
2022-09-09T20:51:22.541Z,16.05
2022-09-09T20:54:12.425Z,9.27
2022-09-09T20:56:43.718Z,15.25
2022-09-09T20:59:17.303Z,7.60
2022-09-09T21:01:48.872Z,8.85
2022-09-09T21:04:19.335Z,10.82
2022-09-09T21:06:49.497Z,7.70
2022-09-09T21:09:19.382Z,13.45
2022-09-09T21:11:49.163Z,7.57
2022-09-09T21:14:18.966Z,9.32
2022-09-09T21:16:48.717Z,10.07
2022-09-09T21:19:18.664Z,9.48
2022-09-09T21:21:49.350Z,9.18
2022-09-09T21:24:19.328Z,10.55
2022-09-09T21:26:49.179Z,7.25
2022-09-09T21:29:19.025Z,9.02
2022-09-09T21:31:49.021Z,7.00
2022-09-09T21:34:20.192Z,10.45
2022-09-09T21:36:49.917Z,13.85
2022-09-09T21:39:19.866Z,6.82
2022-09-09T21:41:50.009Z,8.38
2022-09-09T21:44:20.488Z,8.82
2022-09-09T21:46:55.094Z,7.40
2022-09-09T21:49:28.697Z,10.65
2022-09-09T21:51:59.821Z,10.35
2022-09-09T21:54:33.093Z,7.20
2022-09-09T21:57:03.165Z,10.98
2022-09-09T21:59:34.152Z,13.63
2022-09-09T22:02:04.008Z,9.90
2022-09-09T22:04:33.842Z,9.20
2022-09-09T22:07:03.697Z,13.70
2022-09-09T22:09:33.505Z,8.05
2022-09-09T22:12:03.333Z,18.02
2022-09-09T22:14:34.380Z,9.98
2022-09-09T22:17:04.293Z,13.95
2022-09-09T22:19:45.936Z,20.05
2022-09-09T22:22:16.047Z,11.85
2022-09-09T22:24:46.159Z,15.68
2022-09-09T22:27:17.397Z,15.77
2022-09-09T22:29:47.049Z,23.67
2022-09-09T22:32:17.546Z,15.00
2022-09-09T22:34:48.193Z,15.85
2022-09-09T22:37:18.152Z,18.13
2022-09-09T22:39:48.139Z,21.73
2022-09-09T22:42:19.561Z,19.40
2022-09-09T22:44:49.468Z,14.70
2022-09-09T22:47:19.283Z,18.30
2022-09-09T22:49:48.995Z,15.57
2022-09-09T22:52:18.687Z,18.40
2022-09-09T22:54:49.713Z,18.35
2022-09-09T22:57:19.446Z,18.75
2022-09-09T22:59:49.721Z,18.40
2022-09-09T23:02:22.262Z,15.52
2022-09-09T23:04:52.771Z,17.33
2022-09-09T23:07:23.438Z,19.60
2022-09-09T23:09:53.324Z,18.88
2022-09-09T23:12:23.693Z,19.58
2022-09-09T23:14:55.692Z,19.10
2022-09-09T23:17:26.428Z,18.80
2022-09-09T23:19:58.054Z,17.73
2022-09-09T23:22:28.610Z,21.52
2022-09-09T23:24:59.444Z,20.33
2022-09-09T23:27:29.163Z,17.45
2022-09-09T23:29:59.138Z,17.90
2022-09-09T23:32:29.116Z,18.17
2022-09-09T23:34:59.682Z,14.43
2022-09-09T23:37:29.476Z,15.52
2022-09-09T23:39:59.442Z,15.20
2022-09-09T23:42:29.630Z,13.02
2022-09-09T23:45:02.395Z,11.02
2022-09-09T23:47:32.338Z,10.45
2022-09-09T23:50:03.003Z,10.70
2022-09-09T23:52:33.390Z,9.57
2022-09-09T23:55:03.005Z,9.60
2022-09-09T23:57:32.858Z,11.80
